sensor_id;sensor_type;location;lat;lon;timestamp;pressure;altitude;pressure_sealevel;temperature;humidity
70302;BME280;57706;56.326;43.882;2023-09-19T00:00:46;101254.09;;;8.15;82.32
70302;BME280;57706;56.326;43.882;2023-09-19T00:03:15;101257.94;;;8.11;82.34
70302;BME280;57706;56.326;43.882;2023-09-19T00:05:41;101260.34;;;8.03;82.39
70302;BME280;57706;56.326;43.882;2023-09-19T00:08:10;101253.94;;;7.95;82.69
70302;BME280;57706;56.326;43.882;2023-09-19T00:10:36;101260.81;;;7.96;82.44
70302;BME280;57706;56.326;43.882;2023-09-19T00:13:03;101262.38;;;7.88;82.81
70302;BME280;57706;56.326;43.882;2023-09-19T00:15:41;101267.28;;;7.81;83.04
70302;BME280;57706;56.326;43.882;2023-09-19T00:18:08;101266.13;;;7.74;83.56
70302;BME280;57706;56.326;43.882;2023-09-19T00:20:38;101269.22;;;7.67;83.88
70302;BME280;57706;56.326;43.882;2023-09-19T00:23:05;101268.13;;;7.70;83.88
70302;BME280;57706;56.326;43.882;2023-09-19T00:25:31;101275.41;;;7.66;84.00
70302;BME280;57706;56.326;43.882;2023-09-19T00:28:04;101269.34;;;7.66;83.81
70302;BME280;57706;56.326;43.882;2023-09-19T00:30:32;101277.22;;;7.66;83.82
70302;BME280;57706;56.326;43.882;2023-09-19T00:32:59;101277.69;;;7.60;84.63
70302;BME280;57706;56.326;43.882;2023-09-19T00:35:26;101281.84;;;7.62;84.57
70302;BME280;57706;56.326;43.882;2023-09-19T00:37:53;101286.38;;;7.60;85.12
70302;BME280;57706;56.326;43.882;2023-09-19T00:40:20;101282.41;;;7.77;84.57
70302;BME280;57706;56.326;43.882;2023-09-19T00:42:47;101284.16;;;7.88;83.32
70302;BME280;57706;56.326;43.882;2023-09-19T00:45:15;101283.69;;;7.83;83.19
70302;BME280;57706;56.326;43.882;2023-09-19T00:47:47;101287.75;;;7.76;83.08
70302;BME280;57706;56.326;43.882;2023-09-19T00:50:18;101288.97;;;7.71;83.22
70302;BME280;57706;56.326;43.882;2023-09-19T00:52:49;101288.47;;;7.66;83.46
70302;BME280;57706;56.326;43.882;2023-09-19T00:55:16;101289.66;;;7.74;83.41
70302;BME280;57706;56.326;43.882;2023-09-19T00:57:46;101287.78;;;7.64;83.24
70302;BME280;57706;56.326;43.882;2023-09-19T01:00:13;101291.50;;;7.50;83.44
70302;BME280;57706;56.326;43.882;2023-09-19T01:02:45;101293.75;;;7.32;84.55
70302;BME280;57706;56.326;43.882;2023-09-19T01:05:13;101300.53;;;7.23;85.15
70302;BME280;57706;56.326;43.882;2023-09-19T01:07:40;101308.94;;;7.15;85.63
70302;BME280;57706;56.326;43.882;2023-09-19T01:10:08;101301.09;;;7.04;85.96
70302;BME280;57706;56.326;43.882;2023-09-19T01:12:47;101305.38;;;6.94;86.28
70302;BME280;57706;56.326;43.882;2023-09-19T01:15:44;101308.09;;;6.92;86.30
70302;BME280;57706;56.326;43.882;2023-09-19T01:18:34;101311.25;;;6.84;86.32
70302;BME280;57706;56.326;43.882;2023-09-19T01:29:13;101314.38;;;6.54;87.26
70302;BME280;57706;56.326;43.882;2023-09-19T01:31:47;101323.16;;;6.53;87.43
70302;BME280;57706;56.326;43.882;2023-09-19T01:34:14;101315.44;;;6.51;87.49
70302;BME280;57706;56.326;43.882;2023-09-19T01:36:39;101315.69;;;6.48;87.52
70302;BME280;57706;56.326;43.882;2023-09-19T01:39:08;101315.06;;;6.44;87.66
70302;BME280;57706;56.326;43.882;2023-09-19T01:44:19;101328.91;;;6.33;87.71
70302;BME280;57706;56.326;43.882;2023-09-19T01:46:47;101319.63;;;6.29;87.88
70302;BME280;57706;56.326;43.882;2023-09-19T01:49:50;101332.91;;;6.26;87.83
70302;BME280;57706;56.326;43.882;2023-09-19T01:52:20;101328.00;;;6.22;87.83
70302;BME280;57706;56.326;43.882;2023-09-19T01:54:52;101324.06;;;6.16;87.98
70302;BME280;57706;56.326;43.882;2023-09-19T01:57:27;101324.41;;;6.11;88.47
70302;BME280;57706;56.326;43.882;2023-09-19T01:59:59;101331.41;;;6.11;88.62
70302;BME280;57706;56.326;43.882;2023-09-19T02:02:42;101334.22;;;6.08;88.41
70302;BME280;57706;56.326;43.882;2023-09-19T02:05:08;101332.56;;;6.06;88.27
70302;BME280;57706;56.326;43.882;2023-09-19T02:07:34;101337.88;;;6.05;88.14
70302;BME280;57706;56.326;43.882;2023-09-19T02:10:04;101340.63;;;6.03;88.39
70302;BME280;57706;56.326;43.882;2023-09-19T02:12:33;101346.97;;;5.99;88.44
70302;BME280;57706;56.326;43.882;2023-09-19T02:15:04;101344.78;;;5.93;88.90
70302;BME280;57706;56.326;43.882;2023-09-19T02:17:32;101346.47;;;5.94;89.16
70302;BME280;57706;56.326;43.882;2023-09-19T02:19:58;101342.16;;;5.93;88.76
70302;BME280;57706;56.326;43.882;2023-09-19T02:22:28;101347.38;;;5.93;88.66
70302;BME280;57706;56.326;43.882;2023-09-19T02:24:56;101348.47;;;5.90;88.57
70302;BME280;57706;56.326;43.882;2023-09-19T02:27:25;101342.81;;;5.84;88.55
70302;BME280;57706;56.326;43.882;2023-09-19T02:29:51;101349.69;;;5.85;88.90
70302;BME280;57706;56.326;43.882;2023-09-19T02:32:17;101349.69;;;5.85;88.79
70302;BME280;57706;56.326;43.882;2023-09-19T02:34:44;101356.09;;;5.81;88.71
70302;BME280;57706;56.326;43.882;2023-09-19T02:37:11;101368.09;;;5.83;88.60
70302;BME280;57706;56.326;43.882;2023-09-19T02:39:39;101361.22;;;5.82;88.59
70302;BME280;57706;56.326;43.882;2023-09-19T02:42:05;101360.13;;;5.85;88.91
70302;BME280;57706;56.326;43.882;2023-09-19T02:44:31;101367.88;;;5.86;88.57
70302;BME280;57706;56.326;43.882;2023-09-19T02:46:58;101365.97;;;5.88;88.57
70302;BME280;57706;56.326;43.882;2023-09-19T02:49:24;101365.16;;;5.88;88.41
70302;BME280;57706;56.326;43.882;2023-09-19T02:51:51;101377.25;;;5.89;88.36
70302;BME280;57706;56.326;43.882;2023-09-19T02:54:17;101375.59;;;5.88;88.48
70302;BME280;57706;56.326;43.882;2023-09-19T02:56:43;101371.81;;;5.92;88.27
70302;BME280;57706;56.326;43.882;2023-09-19T02:59:09;101375.88;;;5.96;88.38
70302;BME280;57706;56.326;43.882;2023-09-19T03:01:36;101382.53;;;6.00;87.88
70302;BME280;57706;56.326;43.882;2023-09-19T03:04:05;101379.44;;;6.08;87.90
70302;BME280;57706;56.326;43.882;2023-09-19T03:06:37;101372.00;;;6.15;87.63
70302;BME280;57706;56.326;43.882;2023-09-19T03:09:04;101370.72;;;6.20;87.26
70302;BME280;57706;56.326;43.882;2023-09-19T03:11:39;101380.97;;;6.24;87.02
70302;BME280;57706;56.326;43.882;2023-09-19T03:14:06;101378.03;;;6.28;86.76
70302;BME280;57706;56.326;43.882;2023-09-19T03:16:32;101381.97;;;6.34;86.58
70302;BME280;57706;56.326;43.882;2023-09-19T03:18:59;101379.88;;;6.39;86.44
70302;BME280;57706;56.326;43.882;2023-09-19T03:21:26;101393.06;;;6.49;86.09
70302;BME280;57706;56.326;43.882;2023-09-19T03:23:52;101385.66;;;6.56;85.59
70302;BME280;57706;56.326;43.882;2023-09-19T03:26:17;101384.13;;;6.65;85.71
70302;BME280;57706;56.326;43.882;2023-09-19T03:28:44;101386.06;;;6.74;85.37
70302;BME280;57706;56.326;43.882;2023-09-19T03:31:12;101375.88;;;6.82;85.13
70302;BME280;57706;56.326;43.882;2023-09-19T03:33:38;101381.28;;;6.92;84.69
70302;BME280;57706;56.326;43.882;2023-09-19T03:36:04;101380.56;;;7.01;84.44
70302;BME280;57706;56.326;43.882;2023-09-19T03:38:31;101380.94;;;7.08;83.83
70302;BME280;57706;56.326;43.882;2023-09-19T03:40:58;101383.72;;;7.18;83.52
70302;BME280;57706;56.326;43.882;2023-09-19T03:43:25;101388.34;;;7.26;83.07
70302;BME280;57706;56.326;43.882;2023-09-19T03:45:51;101391.94;;;7.36;83.18
70302;BME280;57706;56.326;43.882;2023-09-19T03:48:18;101385.06;;;7.47;82.74
70302;BME280;57706;56.326;43.882;2023-09-19T03:50:45;101392.69;;;7.61;82.55
70302;BME280;57706;56.326;43.882;2023-09-19T03:53:11;101385.53;;;7.75;82.09
70302;BME280;57706;56.326;43.882;2023-09-19T03:55:38;101392.34;;;7.89;81.53
70302;BME280;57706;56.326;43.882;2023-09-19T03:58:07;101393.13;;;8.01;80.96
70302;BME280;57706;56.326;43.882;2023-09-19T04:00:33;101391.09;;;8.16;80.78
70302;BME280;57706;56.326;43.882;2023-09-19T04:03:08;101397.59;;;8.33;80.11
70302;BME280;57706;56.326;43.882;2023-09-19T04:05:36;101388.75;;;8.45;79.49
70302;BME280;57706;56.326;43.882;2023-09-19T04:08:02;101392.06;;;8.59;79.02
70302;BME280;57706;56.326;43.882;2023-09-19T04:10:28;101386.53;;;8.73;78.26
70302;BME280;57706;56.326;43.882;2023-09-19T04:12:55;101391.81;;;8.94;77.75
70302;BME280;57706;56.326;43.882;2023-09-19T04:15:23;101385.88;;;9.14;77.04
70302;BME280;57706;56.326;43.882;2023-09-19T04:17:50;101386.25;;;9.30;76.57
70302;BME280;57706;56.326;43.882;2023-09-19T04:20:17;101396.41;;;9.45;75.36
70302;BME280;57706;56.326;43.882;2023-09-19T04:22:43;101397.72;;;9.60;74.72
70302;BME280;57706;56.326;43.882;2023-09-19T04:25:09;101392.53;;;9.80;74.70
70302;BME280;57706;56.326;43.882;2023-09-19T04:27:35;101392.88;;;9.97;73.21
70302;BME280;57706;56.326;43.882;2023-09-19T04:30:01;101390.84;;;10.10;72.08
70302;BME280;57706;56.326;43.882;2023-09-19T04:32:30;101385.19;;;10.25;71.92
70302;BME280;57706;56.326;43.882;2023-09-19T04:34:58;101390.03;;;10.39;71.04
70302;BME280;57706;56.326;43.882;2023-09-19T04:37:26;101389.97;;;10.51;69.75
70302;BME280;57706;56.326;43.882;2023-09-19T04:39:52;101388.16;;;10.61;69.43
70302;BME280;57706;56.326;43.882;2023-09-19T04:42:18;101398.28;;;10.76;69.23
70302;BME280;57706;56.326;43.882;2023-09-19T04:44:45;101389.25;;;10.88;68.25
70302;BME280;57706;56.326;43.882;2023-09-19T04:47:10;101402.13;;;11.01;67.37
70302;BME280;57706;56.326;43.882;2023-09-19T04:49:38;101398.50;;;11.12;66.67
70302;BME280;57706;56.326;43.882;2023-09-19T04:52:05;101393.78;;;11.25;66.38
70302;BME280;57706;56.326;43.882;2023-09-19T04:54:32;101399.81;;;11.46;65.66
70302;BME280;57706;56.326;43.882;2023-09-19T04:56:59;101397.41;;;11.62;63.75
70302;BME280;57706;56.326;43.882;2023-09-19T04:59:26;101393.19;;;11.69;60.54
70302;BME280;57706;56.326;43.882;2023-09-19T05:01:54;101388.03;;;11.78;61.12
70302;BME280;57706;56.326;43.882;2023-09-19T05:04:20;101396.28;;;11.93;61.34
70302;BME280;57706;56.326;43.882;2023-09-19T05:06:45;101397.75;;;12.05;60.36
70302;BME280;57706;56.326;43.882;2023-09-19T05:09:11;101395.63;;;12.19;58.58
70302;BME280;57706;56.326;43.882;2023-09-19T05:11:37;101401.19;;;12.34;57.74
70302;BME280;57706;56.326;43.882;2023-09-19T05:14:04;101398.66;;;12.60;58.33
70302;BME280;57706;56.326;43.882;2023-09-19T05:16:30;101403.47;;;12.83;56.43
70302;BME280;57706;56.326;43.882;2023-09-19T05:19:00;101397.34;;;13.01;54.95
70302;BME280;57706;56.326;43.882;2023-09-19T05:21:27;101399.25;;;13.17;54.68
70302;BME280;57706;56.326;43.882;2023-09-19T05:23:56;101398.53;;;13.33;53.92
70302;BME280;57706;56.326;43.882;2023-09-19T05:26:23;101408.56;;;13.56;53.96
70302;BME280;57706;56.326;43.882;2023-09-19T05:28:49;101406.72;;;13.74;53.68
70302;BME280;57706;56.326;43.882;2023-09-19T05:31:14;101404.09;;;13.83;52.56
70302;BME280;57706;56.326;43.882;2023-09-19T05:33:41;101411.88;;;13.93;51.66
70302;BME280;57706;56.326;43.882;2023-09-19T05:36:08;101410.91;;;14.02;52.60
70302;BME280;57706;56.326;43.882;2023-09-19T05:38:36;101407.13;;;14.04;50.83
70302;BME280;57706;56.326;43.882;2023-09-19T05:41:02;101408.31;;;14.18;51.51
70302;BME280;57706;56.326;43.882;2023-09-19T05:43:28;101412.00;;;14.34;50.90
70302;BME280;57706;56.326;43.882;2023-09-19T05:45:54;101408.88;;;14.64;51.35
70302;BME280;57706;56.326;43.882;2023-09-19T05:48:22;101412.06;;;14.92;50.50
70302;BME280;57706;56.326;43.882;2023-09-19T05:50:48;101403.28;;;15.17;49.32
70302;BME280;57706;56.326;43.882;2023-09-19T05:53:15;101396.63;;;15.29;49.09
70302;BME280;57706;56.326;43.882;2023-09-19T05:55:41;101392.63;;;15.41;47.78
70302;BME280;57706;56.326;43.882;2023-09-19T05:58:07;101395.47;;;15.23;46.24
70302;BME280;57706;56.326;43.882;2023-09-19T06:00:34;101401.97;;;15.04;46.54
70302;BME280;57706;56.326;43.882;2023-09-19T06:03:00;101401.31;;;14.77;46.35
70302;BME280;57706;56.326;43.882;2023-09-19T06:05:27;101403.13;;;14.85;45.38
70302;BME280;57706;56.326;43.882;2023-09-19T06:07:54;101404.97;;;14.93;44.57
70302;BME280;57706;56.326;43.882;2023-09-19T06:10:20;101398.94;;;15.32;45.47
70302;BME280;57706;56.326;43.882;2023-09-19T06:12:49;101394.84;;;15.69;44.75
70302;BME280;57706;56.326;43.882;2023-09-19T06:15:15;101405.25;;;15.79;44.51
70302;BME280;57706;56.326;43.882;2023-09-19T06:17:47;101407.44;;;16.07;42.09
70302;BME280;57706;56.326;43.882;2023-09-19T06:20:13;101403.66;;;16.57;42.52
70302;BME280;57706;56.326;43.882;2023-09-19T06:22:44;101405.41;;;17.26;42.37
70302;BME280;57706;56.326;43.882;2023-09-19T06:25:12;101401.53;;;17.74;40.72
70302;BME280;57706;56.326;43.882;2023-09-19T06:27:41;101402.38;;;18.11;39.87
70302;BME280;57706;56.326;43.882;2023-09-19T06:30:10;101402.06;;;17.84;40.25
70302;BME280;57706;56.326;43.882;2023-09-19T06:32:37;101396.94;;;17.83;39.77
70302;BME280;57706;56.326;43.882;2023-09-19T06:35:04;101396.63;;;18.08;39.58
70302;BME280;57706;56.326;43.882;2023-09-19T06:37:33;101403.44;;;18.32;37.41
70302;BME280;57706;56.326;43.882;2023-09-19T06:40:01;101404.47;;;18.31;38.44
70302;BME280;57706;56.326;43.882;2023-09-19T06:42:26;101390.09;;;18.76;38.42
70302;BME280;57706;56.326;43.882;2023-09-19T06:44:54;101395.03;;;19.36;37.22
70302;BME280;57706;56.326;43.882;2023-09-19T06:47:20;101392.09;;;19.59;36.13
70302;BME280;57706;56.326;43.882;2023-09-19T06:49:46;101397.22;;;19.61;36.34
70302;BME280;57706;56.326;43.882;2023-09-19T06:52:13;101396.41;;;20.29;35.52
70302;BME280;57706;56.326;43.882;2023-09-19T06:54:40;101398.47;;;21.28;34.35
70302;BME280;57706;56.326;43.882;2023-09-19T06:57:07;101395.78;;;22.59;32.52
70302;BME280;57706;56.326;43.882;2023-09-19T06:59:36;101388.38;;;29.00;24.30
70302;BME280;57706;56.326;43.882;2023-09-19T07:02:03;101373.75;;;34.61;18.31
70302;BME280;57706;56.326;43.882;2023-09-19T07:04:32;101369.66;;;35.28;15.05
70302;BME280;57706;56.326;43.882;2023-09-19T07:06:58;101366.63;;;38.29;14.12
70302;BME280;57706;56.326;43.882;2023-09-19T07:09:24;101355.63;;;38.89;13.21
70302;BME280;57706;56.326;43.882;2023-09-19T07:11:54;101350.38;;;38.54;12.87
70302;BME280;57706;56.326;43.882;2023-09-19T07:14:20;101353.75;;;42.37;11.21
70302;BME280;57706;56.326;43.882;2023-09-19T07:16:46;101344.38;;;44.03;10.12
70302;BME280;57706;56.326;43.882;2023-09-19T07:19:17;101336.25;;;43.01;10.53
70302;BME280;57706;56.326;43.882;2023-09-19T07:21:43;101336.88;;;44.58;9.67
70302;BME280;57706;56.326;43.882;2023-09-19T07:24:09;101322.56;;;46.07;8.84
70302;BME280;57706;56.326;43.882;2023-09-19T07:26:34;101324.22;;;46.90;7.98
70302;BME280;57706;56.326;43.882;2023-09-19T07:29:01;101315.44;;;46.80;8.05
70302;BME280;57706;56.326;43.882;2023-09-19T07:31:32;101309.19;;;44.88;8.39
70302;BME280;57706;56.326;43.882;2023-09-19T07:33:58;101310.34;;;45.21;8.23
70302;BME280;57706;56.326;43.882;2023-09-19T07:36:23;101310.47;;;46.33;7.69
70302;BME280;57706;56.326;43.882;2023-09-19T07:38:50;101312.41;;;47.36;6.78
70302;BME280;57706;56.326;43.882;2023-09-19T07:41:16;101309.03;;;49.32;6.43
70302;BME280;57706;56.326;43.882;2023-09-19T07:43:43;101304.34;;;50.45;6.12
70302;BME280;57706;56.326;43.882;2023-09-19T07:46:09;101298.34;;;51.29;5.87
70302;BME280;57706;56.326;43.882;2023-09-19T07:48:35;101294.50;;;49.98;5.70
70302;BME280;57706;56.326;43.882;2023-09-19T07:51:07;101296.44;;;49.06;6.09
70302;BME280;57706;56.326;43.882;2023-09-19T07:53:35;101294.00;;;48.37;6.57
70302;BME280;57706;56.326;43.882;2023-09-19T07:56:05;101288.78;;;48.57;5.80
70302;BME280;57706;56.326;43.882;2023-09-19T07:58:33;101294.88;;;48.05;6.59
70302;BME280;57706;56.326;43.882;2023-09-19T08:01:07;101294.53;;;49.91;5.49
70302;BME280;57706;56.326;43.882;2023-09-19T08:03:36;101292.72;;;50.15;5.26
70302;BME280;57706;56.326;43.882;2023-09-19T08:06:07;101286.47;;;49.09;5.53
70302;BME280;57706;56.326;43.882;2023-09-19T08:08:34;101297.56;;;51.01;5.66
70302;BME280;57706;56.326;43.882;2023-09-19T08:11:08;101283.38;;;49.94;5.28
70302;BME280;57706;56.326;43.882;2023-09-19T08:13:39;101282.44;;;50.71;4.81
70302;BME280;57706;56.326;43.882;2023-09-19T08:16:12;101281.16;;;51.27;5.41
70302;BME280;57706;56.326;43.882;2023-09-19T08:18:38;101275.59;;;51.03;5.13
70302;BME280;57706;56.326;43.882;2023-09-19T08:21:06;101263.41;;;50.58;5.48
70302;BME280;57706;56.326;43.882;2023-09-19T08:23:37;101275.28;;;50.70;5.44
70302;BME280;57706;56.326;43.882;2023-09-19T08:26:07;101274.09;;;49.63;5.62
70302;BME280;57706;56.326;43.882;2023-09-19T08:28:35;101258.88;;;46.32;6.55
70302;BME280;57706;56.326;43.882;2023-09-19T08:31:03;101260.44;;;44.53;7.80
70302;BME280;57706;56.326;43.882;2023-09-19T08:33:33;101266.53;;;46.57;6.94
70302;BME280;57706;56.326;43.882;2023-09-19T08:36:00;101262.44;;;44.22;7.65
70302;BME280;57706;56.326;43.882;2023-09-19T08:38:26;101255.31;;;45.72;7.51
70302;BME280;57706;56.326;43.882;2023-09-19T08:40:59;101255.53;;;47.88;6.38
70302;BME280;57706;56.326;43.882;2023-09-19T08:43:26;101259.31;;;48.53;6.18
70302;BME280;57706;56.326;43.882;2023-09-19T08:45:59;101262.00;;;48.71;5.89
70302;BME280;57706;56.326;43.882;2023-09-19T08:48:29;101259.50;;;48.91;5.92
70302;BME280;57706;56.326;43.882;2023-09-19T08:54:03;101257.78;;;49.57;5.43
70302;BME280;57706;56.326;43.882;2023-09-19T08:56:32;101257.63;;;49.76;5.45
70302;BME280;57706;56.326;43.882;2023-09-19T08:59:05;101251.41;;;49.99;5.44
70302;BME280;57706;56.326;43.882;2023-09-19T09:01:34;101250.38;;;47.90;6.07
70302;BME280;57706;56.326;43.882;2023-09-19T09:04:02;101254.00;;;48.76;5.94
70302;BME280;57706;56.326;43.882;2023-09-19T09:06:29;101249.22;;;47.40;6.03
70302;BME280;57706;56.326;43.882;2023-09-19T09:08:55;101249.25;;;46.15;6.66
70302;BME280;57706;56.326;43.882;2023-09-19T09:11:22;101237.69;;;47.53;6.14
70302;BME280;57706;56.326;43.882;2023-09-19T09:13:50;101234.50;;;47.11;6.49
70302;BME280;57706;56.326;43.882;2023-09-19T09:16:16;101229.72;;;47.62;6.29
70302;BME280;57706;56.326;43.882;2023-09-19T09:18:45;101235.13;;;45.75;6.70
70302;BME280;57706;56.326;43.882;2023-09-19T09:21:12;101239.81;;;43.66;8.12
70302;BME280;57706;56.326;43.882;2023-09-19T09:23:40;101234.13;;;44.66;7.42
70302;BME280;57706;56.326;43.882;2023-09-19T09:26:05;101234.09;;;45.98;7.06
70302;BME280;57706;56.326;43.882;2023-09-19T09:28:34;101240.06;;;47.00;6.84
70302;BME280;57706;56.326;43.882;2023-09-19T09:31:01;101234.50;;;47.22;6.42
70302;BME280;57706;56.326;43.882;2023-09-19T09:33:35;101234.09;;;45.01;7.33
70302;BME280;57706;56.326;43.882;2023-09-19T09:36:03;101229.06;;;45.59;7.15
70302;BME280;57706;56.326;43.882;2023-09-19T09:38:43;101225.00;;;46.05;7.17
70302;BME280;57706;56.326;43.882;2023-09-19T09:41:09;101228.09;;;46.85;6.74
70302;BME280;57706;56.326;43.882;2023-09-19T09:43:37;101217.44;;;47.49;6.45
70302;BME280;57706;56.326;43.882;2023-09-19T09:46:18;101217.44;;;47.34;6.72
70302;BME280;57706;56.326;43.882;2023-09-19T09:49:04;101211.38;;;46.67;6.64
70302;BME280;57706;56.326;43.882;2023-09-19T09:51:50;101208.75;;;46.11;7.06
70302;BME280;57706;56.326;43.882;2023-09-19T09:54:27;101221.66;;;45.29;7.11
70302;BME280;57706;56.326;43.882;2023-09-19T09:57:00;101217.66;;;46.45;6.87
70302;BME280;57706;56.326;43.882;2023-09-19T09:59:54;101212.09;;;46.49;6.58
70302;BME280;57706;56.326;43.882;2023-09-19T10:02:43;101215.91;;;46.08;6.97
70302;BME280;57706;56.326;43.882;2023-09-19T10:05:19;101210.31;;;45.97;7.27
70302;BME280;57706;56.326;43.882;2023-09-19T10:07:50;101198.56;;;44.38;7.84
70302;BME280;57706;56.326;43.882;2023-09-19T10:10:34;101197.47;;;44.84;7.50
70302;BME280;57706;56.326;43.882;2023-09-19T10:13:07;101195.22;;;44.97;7.38
70302;BME280;57706;56.326;43.882;2023-09-19T10:15:33;101193.06;;;43.33;8.21
70302;BME280;57706;56.326;43.882;2023-09-19T10:18:01;101193.50;;;43.36;8.20
70302;BME280;57706;56.326;43.882;2023-09-19T10:20:30;101190.06;;;42.96;8.52
70302;BME280;57706;56.326;43.882;2023-09-19T10:22:57;101193.53;;;41.01;9.78
70302;BME280;57706;56.326;43.882;2023-09-19T10:25:27;101186.25;;;43.04;8.48
70302;BME280;57706;56.326;43.882;2023-09-19T10:28:02;101191.44;;;43.79;7.90
70302;BME280;57706;56.326;43.882;2023-09-19T10:30:37;101188.63;;;45.09;7.97
70302;BME280;57706;56.326;43.882;2023-09-19T10:33:09;101191.13;;;45.77;7.31
70302;BME280;57706;56.326;43.882;2023-09-19T10:35:39;101188.63;;;45.58;7.27
70302;BME280;57706;56.326;43.882;2023-09-19T10:38:15;101189.84;;;46.35;7.01
70302;BME280;57706;56.326;43.882;2023-09-19T10:40:43;101184.47;;;45.37;7.36
70302;BME280;57706;56.326;43.882;2023-09-19T10:43:18;101175.81;;;40.57;9.84
70302;BME280;57706;56.326;43.882;2023-09-19T10:45:48;101180.03;;;40.26;10.11
70302;BME280;57706;56.326;43.882;2023-09-19T10:48:16;101184.00;;;38.19;11.68
70302;BME280;57706;56.326;43.882;2023-09-19T10:50:50;101196.53;;;41.24;9.93
70302;BME280;57706;56.326;43.882;2023-09-19T10:53:17;101178.69;;;39.70;10.31
70302;BME280;57706;56.326;43.882;2023-09-19T10:55:56;101183.63;;;41.61;9.72
70302;BME280;57706;56.326;43.882;2023-09-19T10:58:27;101173.13;;;42.38;9.12
70302;BME280;57706;56.326;43.882;2023-09-19T11:01:00;101175.75;;;42.50;8.51
70302;BME280;57706;56.326;43.882;2023-09-19T11:03:31;101170.66;;;42.33;8.52
70302;BME280;57706;56.326;43.882;2023-09-19T11:09:01;101167.75;;;42.45;8.69
70302;BME280;57706;56.326;43.882;2023-09-19T11:11:39;101164.53;;;42.83;8.39
70302;BME280;57706;56.326;43.882;2023-09-19T11:30:45;101137.66;;;45.81;7.38
70302;BME280;57706;56.326;43.882;2023-09-19T11:33:29;101138.50;;;44.87;7.73
70302;BME280;57706;56.326;43.882;2023-09-19T11:36:14;101142.88;;;40.90;9.97
70302;BME280;57706;56.326;43.882;2023-09-19T11:46:17;101116.78;;;41.83;9.45
70302;BME280;57706;56.326;43.882;2023-09-19T11:48:48;101124.94;;;40.67;9.88
70302;BME280;57706;56.326;43.882;2023-09-19T11:51:42;101121.75;;;40.65;10.12
70302;BME280;57706;56.326;43.882;2023-09-19T11:54:11;101118.25;;;37.32;12.38
70302;BME280;57706;56.326;43.882;2023-09-19T11:56:45;101128.41;;;34.36;14.15
70302;BME280;57706;56.326;43.882;2023-09-19T11:59:19;101130.91;;;35.29;13.27
70302;BME280;57706;56.326;43.882;2023-09-19T12:01:52;101128.03;;;36.86;12.73
70302;BME280;57706;56.326;43.882;2023-09-19T12:07:13;101117.19;;;39.62;10.84
70302;BME280;57706;56.326;43.882;2023-09-19T12:09:50;101121.91;;;37.84;11.96
70302;BME280;57706;56.326;43.882;2023-09-19T12:14:50;101117.59;;;38.81;11.15
70302;BME280;57706;56.326;43.882;2023-09-19T12:17:19;101111.47;;;40.21;10.36
70302;BME280;57706;56.326;43.882;2023-09-19T12:19:55;101119.59;;;38.38;11.52
70302;BME280;57706;56.326;43.882;2023-09-19T12:22:22;101114.50;;;40.03;10.64
70302;BME280;57706;56.326;43.882;2023-09-19T12:24:48;101112.72;;;38.53;11.74
70302;BME280;57706;56.326;43.882;2023-09-19T12:27:14;101106.03;;;39.09;11.15
70302;BME280;57706;56.326;43.882;2023-09-19T12:29:45;101107.09;;;40.77;10.28
70302;BME280;57706;56.326;43.882;2023-09-19T12:32:12;101101.81;;;41.49;9.64
70302;BME280;57706;56.326;43.882;2023-09-19T12:34:38;101095.91;;;42.02;9.26
70302;BME280;57706;56.326;43.882;2023-09-19T12:37:13;101100.59;;;41.82;9.67
70302;BME280;57706;56.326;43.882;2023-09-19T12:39:51;101106.66;;;40.18;10.45
70302;BME280;57706;56.326;43.882;2023-09-19T12:42:24;101093.38;;;36.90;12.79
70302;BME280;57706;56.326;43.882;2023-09-19T12:44:54;101098.25;;;36.14;13.30
70302;BME280;57706;56.326;43.882;2023-09-19T12:47:24;101090.06;;;38.56;11.61
70302;BME280;57706;56.326;43.882;2023-09-19T12:50:12;101086.78;;;39.21;11.47
70302;BME280;57706;56.326;43.882;2023-09-19T12:52:52;101082.66;;;38.35;11.84
70302;BME280;57706;56.326;43.882;2023-09-19T12:55:29;101078.84;;;37.55;12.33
70302;BME280;57706;56.326;43.882;2023-09-19T12:58:13;101079.25;;;38.17;12.08
70302;BME280;57706;56.326;43.882;2023-09-19T13:00:42;101082.13;;;35.94;13.83
70302;BME280;57706;56.326;43.882;2023-09-19T13:08:28;101075.94;;;35.62;14.19
70302;BME280;57706;56.326;43.882;2023-09-19T13:11:16;101078.22;;;36.92;13.11
70302;BME280;57706;56.326;43.882;2023-09-19T13:13:49;101074.47;;;38.48;11.94
70302;BME280;57706;56.326;43.882;2023-09-19T13:16:19;101073.09;;;37.39;13.03
70302;BME280;57706;56.326;43.882;2023-09-19T13:18:50;101076.56;;;34.96;14.44
70302;BME280;57706;56.326;43.882;2023-09-19T13:21:26;101080.53;;;34.44;14.79
70302;BME280;57706;56.326;43.882;2023-09-19T13:23:54;101081.97;;;35.50;14.15
70302;BME280;57706;56.326;43.882;2023-09-19T13:26:28;101076.13;;;33.08;15.83
70302;BME280;57706;56.326;43.882;2023-09-19T13:28:54;101080.00;;;31.38;17.56
70302;BME280;57706;56.326;43.882;2023-09-19T13:31:20;101079.72;;;31.10;18.07
70302;BME280;57706;56.326;43.882;2023-09-19T13:33:48;101084.88;;;33.52;16.37
70302;BME280;57706;56.326;43.882;2023-09-19T13:36:14;101079.75;;;34.29;15.54
70302;BME280;57706;56.326;43.882;2023-09-19T13:38:43;101087.47;;;31.51;17.52
70302;BME280;57706;56.326;43.882;2023-09-19T13:41:12;101082.28;;;31.55;17.56
70302;BME280;57706;56.326;43.882;2023-09-19T13:43:39;101079.09;;;32.40;17.03
70302;BME280;57706;56.326;43.882;2023-09-19T13:46:05;101080.94;;;32.45;16.88
70302;BME280;57706;56.326;43.882;2023-09-19T13:48:33;101068.91;;;33.31;16.11